Ji'An, China
Current Conditions -  °F | °C
As of 3:00 PM on Friday 31 Oct 2014 (Local Time) from ZGHA Reporting Station
Light Rain Light Rain  
Wind Chill: 61°   Ceiling: 700
Heat Index: 61°   Visibility: 2.8mi
Dew Point: 57°   Wind: 7mph
Humidity: 88%   Direction: 10°N
Pressure: 30"   Gusts: NA
Location:  27.12°N, 114.97°E
Report Text: ZGHA 310700Z 01003MPS 320V080 4500 -RA BR FEW005BKN007OVC050 16/14 Q1016 NOSIG
Loading
Personal Weather Stations






























Interactive Weather Map
Tropical Storm Tracking
New forecast layout! Learn more

10-Day Weather Forecast

Advertisements
Track Severe Weather on mobile